createdAt,value
2019-04-21T00:00:20.597Z,67.7
2019-04-21T00:10:48.671Z,68.9
2019-04-21T00:15:27.683Z,69.3
2019-04-21T00:20:31.233Z,69.6
2019-04-21T00:25:30.957Z,69.6
2019-04-21T00:30:34.216Z,70.2
2019-04-21T00:35:21.054Z,70.6
2019-04-21T00:40:52.246Z,69.5
2019-04-21T00:45:38.788Z,70.2
2019-04-21T00:50:51.265Z,70.3
2019-04-21T00:55:44.602Z,69.3
2019-04-21T01:00:55.658Z,68.9
2019-04-21T01:05:42.928Z,69.8
2019-04-21T01:10:31.486Z,69.1
2019-04-21T01:20:21.371Z,70.2
2019-04-21T01:25:28.071Z,70.1
2019-04-21T01:30:50.664Z,70.7
2019-04-21T01:35:44.174Z,71.5
2019-04-21T01:40:59.191Z,71.6
2019-04-21T01:45:44.766Z,72.0
2019-04-21T01:50:40.971Z,71.8
2019-04-21T01:55:45.655Z,71.4
2019-04-21T02:00:32.802Z,72.1
2019-04-21T02:05:54.916Z,71.4
2019-04-21T02:10:54.594Z,71.9
2019-04-21T02:15:42.388Z,72.0
2019-04-21T02:20:34.504Z,72.8
2019-04-21T02:25:44.669Z,72.6
2019-04-21T02:30:56.602Z,72.8
2019-04-21T02:41:13.337Z,73.8
2019-04-21T02:46:02.030Z,73.3
2019-04-21T02:50:46.958Z,72.5
2019-04-21T03:01:05.146Z,73.2
2019-04-21T03:10:54.024Z,74.5
2019-04-21T03:15:55.603Z,74.1
2019-04-21T03:20:55.000Z,74.6
2019-04-21T03:25:41.716Z,74.6
2019-04-21T03:36:13.466Z,74.5
2019-04-21T03:40:57.778Z,75.3
2019-04-21T03:50:47.238Z,76.0
2019-04-21T03:55:50.425Z,76.0
2019-04-21T04:01:04.193Z,75.7
2019-04-21T04:15:56.576Z,76.9
2019-04-21T04:21:19.969Z,76.1
2019-04-21T04:25:57.725Z,75.8
2019-04-21T04:30:54.248Z,75.8
2019-04-21T04:36:04.298Z,76.2
2019-04-21T04:41:02.882Z,77.0
2019-04-21T04:45:48.413Z,76.8
2019-04-21T04:50:55.377Z,76.5
2019-04-21T04:56:01.256Z,75.5
2019-04-21T05:01:16.943Z,75.4
2019-04-21T05:06:10.660Z,74.9
2019-04-21T05:11:08.144Z,74.5
2019-04-21T05:16:02.214Z,73.7
2019-04-21T05:21:10.580Z,73.6
2019-04-21T05:25:38.934Z,73.0
2019-04-21T05:31:13.566Z,72.7
2019-04-21T05:35:52.001Z,72.6
2019-04-21T05:40:37.322Z,72.4
2019-04-21T05:45:46.019Z,71.9
2019-04-21T06:01:06.370Z,70.1
2019-04-21T06:05:53.447Z,69.2
2019-04-21T06:10:48.833Z,82.8
2019-04-21T06:20:54.959Z,64.0
2019-04-21T06:26:14.800Z,63.3
2019-04-21T06:31:18.074Z,62.2
2019-04-21T06:36:01.350Z,60.9
2019-04-21T06:40:51.127Z,60.1
2019-04-21T06:45:53.996Z,58.9
2019-04-21T06:50:52.967Z,58.2
2019-04-21T06:56:00.126Z,56.6
2019-04-21T07:00:47.658Z,56.2
2019-04-21T07:06:00.286Z,55.2
2019-04-21T07:10:47.991Z,54.2
2019-04-21T07:15:43.957Z,54.1
2019-04-21T07:25:53.129Z,53.0
2019-04-21T07:30:43.658Z,54.0
2019-04-21T07:35:37.493Z,52.5
2019-04-21T07:40:59.330Z,50.2
2019-04-21T07:45:49.835Z,49.0
2019-04-21T07:50:54.449Z,47.7
2019-04-21T08:01:04.323Z,46.7
2019-04-21T08:05:48.443Z,45.6
2019-04-21T08:10:44.119Z,45.1
2019-04-21T08:15:49.443Z,44.6
2019-04-21T08:20:41.855Z,43.7
2019-04-21T08:30:55.308Z,43.9
2019-04-21T08:36:04.794Z,43.9
2019-04-21T08:40:50.406Z,35.2
2019-04-21T08:45:44.997Z,42.9
2019-04-21T08:51:14.179Z,41.6
2019-04-21T08:55:58.511Z,42.0
2019-04-21T09:00:51.448Z,39.9
2019-04-21T09:05:44.812Z,40.2
2019-04-21T09:10:47.018Z,39.6
2019-04-21T09:15:36.920Z,39.5
2019-04-21T09:25:50.610Z,38.4
2019-04-21T09:30:26.476Z,51.0
2019-04-21T09:35:24.052Z,36.3
2019-04-21T09:40:37.177Z,37.0
2019-04-21T09:45:26.581Z,36.3
2019-04-21T09:50:24.397Z,36.1
2019-04-21T09:55:26.584Z,36.2
2019-04-21T10:00:26.557Z,35.8
2019-04-21T10:05:39.516Z,32.8
2019-04-21T10:10:36.539Z,31.3
2019-04-21T10:15:29.825Z,30.5
2019-04-21T10:20:24.489Z,30.9
2019-04-21T10:25:22.829Z,30.4
2019-04-21T10:30:22.523Z,30.5
2019-04-21T10:35:28.892Z,62.0
2019-04-21T10:40:41.435Z,30.8
2019-04-21T10:45:57.062Z,29.8
2019-04-21T10:50:22.692Z,29.4
2019-04-21T10:55:41.807Z,30.4
2019-04-21T11:00:25.977Z,29.0
2019-04-21T11:05:32.662Z,29.0
2019-04-21T11:10:49.870Z,26.9
2019-04-21T11:15:27.495Z,27.9
2019-04-21T11:20:26.944Z,27.4
2019-04-21T11:25:35.903Z,27.1
2019-04-21T11:35:27.543Z,23.7
2019-04-21T11:40:27.696Z,21.0
2019-04-21T11:45:32.818Z,21.2
2019-04-21T11:50:43.508Z,20.1
2019-04-21T11:55:29.522Z,19.9
2019-04-21T12:00:23.991Z,19.6
2019-04-21T12:05:43.483Z,18.7
2019-04-21T12:10:24.960Z,19.2
2019-04-21T12:15:31.512Z,17.6
2019-04-21T12:20:28.582Z,18.7
2019-04-21T12:25:51.429Z,16.5
2019-04-21T12:30:22.421Z,18.5
2019-04-21T12:35:21.997Z,19.6
2019-04-21T12:40:30.614Z,15.3
2019-04-21T12:45:28.156Z,18.0
2019-04-21T12:50:23.620Z,19.1
2019-04-21T12:55:23.983Z,18.3
2019-04-21T13:00:42.878Z,18.7
2019-04-21T13:05:29.506Z,18.7
2019-04-21T13:10:26.324Z,16.4
2019-04-21T13:15:23.420Z,16.2
2019-04-21T13:20:40.190Z,15.9
2019-04-21T13:25:32.082Z,17.0
2019-04-21T13:30:22.320Z,15.3
2019-04-21T13:35:35.091Z,16.2
2019-04-21T13:40:55.892Z,17.6
2019-04-21T13:45:23.989Z,17.7
2019-04-21T13:50:25.592Z,15.7
2019-04-21T13:55:21.811Z,15.5
2019-04-21T14:00:27.439Z,16.2
2019-04-21T14:05:22.770Z,16.0
2019-04-21T14:10:23.966Z,17.8
2019-04-21T14:15:26.302Z,17.0
2019-04-21T14:20:39.555Z,16.9
2019-04-21T14:25:23.846Z,16.0
2019-04-21T14:30:22.721Z,15.3
2019-04-21T14:35:41.042Z,14.3
2019-04-21T14:40:29.445Z,15.1
2019-04-21T14:45:34.692Z,15.0
2019-04-21T14:50:34.183Z,16.3
2019-04-21T14:55:39.425Z,16.7
2019-04-21T15:00:43.811Z,18.6
2019-04-21T15:05:25.266Z,17.7
2019-04-21T15:10:38.983Z,2.0
2019-04-21T15:15:27.796Z,14.4
2019-04-21T15:20:34.050Z,16.8
2019-04-21T15:25:26.061Z,14.8
2019-04-21T15:30:25.051Z,15.3
2019-04-21T15:35:24.922Z,16.1
2019-04-21T15:40:37.457Z,16.8
2019-04-21T15:45:21.852Z,17.9
2019-04-21T15:50:30.281Z,19.1
2019-04-21T15:55:28.463Z,16.4
2019-04-21T16:00:22.902Z,17.7
2019-04-21T16:05:24.821Z,16.8
2019-04-21T16:10:37.271Z,29.6
2019-04-21T16:15:26.308Z,14.1
2019-04-21T16:20:32.509Z,15.0
2019-04-21T16:25:28.676Z,15.4
2019-04-21T16:30:46.512Z,16.8
2019-04-21T16:35:29.469Z,16.3
2019-04-21T16:40:46.709Z,15.4
2019-04-21T16:45:22.950Z,16.1
2019-04-21T16:50:37.303Z,16.9
2019-04-21T16:55:24.699Z,16.4
2019-04-21T17:00:46.051Z,18.8
2019-04-21T17:05:32.265Z,15.5
2019-04-21T17:10:28.619Z,16.8
2019-04-21T17:15:48.722Z,17.0
2019-04-21T17:20:33.299Z,17.7
2019-04-21T17:25:33.983Z,18.2
2019-04-21T17:30:26.622Z,16.5
2019-04-21T17:35:45.047Z,16.9
2019-04-21T17:40:27.030Z,17.5
2019-04-21T17:45:51.041Z,18.1
2019-04-21T17:50:23.403Z,19.8
2019-04-21T17:55:27.820Z,20.1
2019-04-21T18:05:50.344Z,22.9
2019-04-21T18:10:50.710Z,22.4
2019-04-21T18:15:45.694Z,23.5
2019-04-21T18:20:21.914Z,24.9
2019-04-21T18:25:45.183Z,25.9
2019-04-21T18:30:26.565Z,28.3
2019-04-21T18:35:22.615Z,28.9
2019-04-21T18:40:45.915Z,29.5
2019-04-21T18:45:53.346Z,30.4
2019-04-21T18:50:45.837Z,30.6
2019-04-21T18:55:32.280Z,30.7
2019-04-21T19:00:27.419Z,32.6
2019-04-21T19:05:24.493Z,35.1
2019-04-21T19:10:39.648Z,34.3
2019-04-21T19:20:46.327Z,36.1
2019-04-21T19:25:49.691Z,37.2
2019-04-21T19:30:41.179Z,38.3
2019-04-21T19:35:27.715Z,38.1
2019-04-21T19:40:49.473Z,40.1
2019-04-21T19:45:44.965Z,40.1
2019-04-21T19:50:46.680Z,41.0
2019-04-21T19:55:24.278Z,41.5
2019-04-21T20:00:20.527Z,42.0
2019-04-21T20:05:34.983Z,43.2
2019-04-21T20:10:44.394Z,43.1
2019-04-21T20:15:46.045Z,43.6
2019-04-21T20:20:48.195Z,44.3
2019-04-21T20:25:42.419Z,45.2
2019-04-21T20:30:40.532Z,45.4
2019-04-21T20:35:48.194Z,46.0
2019-04-21T20:40:30.893Z,46.7
2019-04-21T20:45:49.297Z,46.9
2019-04-21T20:50:35.365Z,47.7
2019-04-21T20:55:52.775Z,49.0
2019-04-21T21:00:54.544Z,49.2
2019-04-21T21:05:30.512Z,49.6
2019-04-21T21:10:44.214Z,50.0
2019-04-21T21:15:50.123Z,50.6
2019-04-21T21:20:49.636Z,51.0
2019-04-21T21:25:41.722Z,50.6
2019-04-21T21:30:41.505Z,49.5
2019-04-21T21:35:49.441Z,51.9
2019-04-21T21:40:40.157Z,51.2
2019-04-21T21:45:45.780Z,52.1
2019-04-21T21:50:35.934Z,52.2
2019-04-21T21:55:19.373Z,52.7
2019-04-21T22:00:19.969Z,53.2
2019-04-21T22:05:42.267Z,53.7
2019-04-21T22:10:32.027Z,54.0
2019-04-21T22:15:24.867Z,54.3
2019-04-21T22:20:50.693Z,54.2
2019-04-21T22:25:26.697Z,54.2
2019-04-21T22:30:26.878Z,53.4
2019-04-21T22:35:33.484Z,54.2
2019-04-21T22:40:33.824Z,54.8
2019-04-21T22:45:21.340Z,55.0
2019-04-21T22:50:20.223Z,55.3
2019-04-21T22:55:27.435Z,55.2
2019-04-21T23:00:24.008Z,55.0
2019-04-21T23:05:28.308Z,54.6
2019-04-21T23:10:35.038Z,55.6
2019-04-21T23:15:42.383Z,55.3
2019-04-21T23:20:39.349Z,55.7
2019-04-21T23:25:36.631Z,55.0
2019-04-21T23:35:31.416Z,54.9
2019-04-21T23:40:57.764Z,54.9
2019-04-21T23:45:25.100Z,54.4
2019-04-21T23:50:32.940Z,54.6
2019-04-21T23:55:37.106Z,54.6
